sensor_id;sensor_type;location;lat;lon;timestamp;temperature;humidity
8408;DHT22;4241;48.452;9.216;2022-08-21T00:01:27;15.40;99.90
8408;DHT22;4241;48.452;9.216;2022-08-21T00:03:56;15.40;99.90
8408;DHT22;4241;48.452;9.216;2022-08-21T00:06:23;15.20;99.90
8408;DHT22;4241;48.452;9.216;2022-08-21T00:08:53;15.80;99.90
8408;DHT22;4241;48.452;9.216;2022-08-21T00:11:20;15.20;99.90
8408;DHT22;4241;48.452;9.216;2022-08-21T00:13:47;15.50;99.90
8408;DHT22;4241;48.452;9.216;2022-08-21T00:16:14;15.90;99.90
8408;DHT22;4241;48.452;9.216;2022-08-21T00:18:40;15.40;99.90
8408;DHT22;4241;48.452;9.216;2022-08-21T00:21:11;15.10;99.90
8408;DHT22;4241;48.452;9.216;2022-08-21T00:23:38;15.10;99.90
8408;DHT22;4241;48.452;9.216;2022-08-21T00:26:05;15.40;99.90
8408;DHT22;4241;48.452;9.216;2022-08-21T00:28:33;15.10;99.90
8408;DHT22;4241;48.452;9.216;2022-08-21T00:31:00;14.90;99.90
8408;DHT22;4241;48.452;9.216;2022-08-21T00:33:30;15.20;99.90
8408;DHT22;4241;48.452;9.216;2022-08-21T00:35:57;14.90;99.90
8408;DHT22;4241;48.452;9.216;2022-08-21T00:38:26;15.00;99.90
8408;DHT22;4241;48.452;9.216;2022-08-21T00:40:56;15.00;99.90
8408;DHT22;4241;48.452;9.216;2022-08-21T00:43:25;14.90;99.90
8408;DHT22;4241;48.452;9.216;2022-08-21T00:45:54;14.80;99.90
8408;DHT22;4241;48.452;9.216;2022-08-21T00:48:21;15.00;99.90
8408;DHT22;4241;48.452;9.216;2022-08-21T00:50:52;15.00;99.90
8408;DHT22;4241;48.452;9.216;2022-08-21T00:53:21;15.10;99.90
8408;DHT22;4241;48.452;9.216;2022-08-21T00:55:50;14.80;99.90
8408;DHT22;4241;48.452;9.216;2022-08-21T00:58:18;14.70;99.90
8408;DHT22;4241;48.452;9.216;2022-08-21T01:00:47;14.70;99.90
8408;DHT22;4241;48.452;9.216;2022-08-21T01:03:19;14.80;99.90
8408;DHT22;4241;48.452;9.216;2022-08-21T01:05:47;14.60;99.90
8408;DHT22;4241;48.452;9.216;2022-08-21T01:08:15;14.60;99.90
8408;DHT22;4241;48.452;9.216;2022-08-21T01:10:43;14.90;99.90
8408;DHT22;4241;48.452;9.216;2022-08-21T01:13:14;14.60;99.90
8408;DHT22;4241;48.452;9.216;2022-08-21T01:15:45;14.70;99.90
8408;DHT22;4241;48.452;9.216;2022-08-21T01:18:13;14.50;99.90
8408;DHT22;4241;48.452;9.216;2022-08-21T01:20:43;14.50;99.90
8408;DHT22;4241;48.452;9.216;2022-08-21T01:23:12;14.40;99.90
8408;DHT22;4241;48.452;9.216;2022-08-21T01:25:39;14.40;99.90
8408;DHT22;4241;48.452;9.216;2022-08-21T01:28:11;14.30;99.90
8408;DHT22;4241;48.452;9.216;2022-08-21T01:30:40;14.30;99.90
8408;DHT22;4241;48.452;9.216;2022-08-21T01:33:08;14.90;99.90
8408;DHT22;4241;48.452;9.216;2022-08-21T01:35:35;15.00;99.90
8408;DHT22;4241;48.452;9.216;2022-08-21T01:38:02;14.40;99.90
8408;DHT22;4241;48.452;9.216;2022-08-21T01:40:31;14.30;99.90
8408;DHT22;4241;48.452;9.216;2022-08-21T01:42:58;14.50;99.90
8408;DHT22;4241;48.452;9.216;2022-08-21T01:45:24;14.40;99.90
8408;DHT22;4241;48.452;9.216;2022-08-21T01:47:51;14.30;99.90
8408;DHT22;4241;48.452;9.216;2022-08-21T01:50:19;14.40;99.90
8408;DHT22;4241;48.452;9.216;2022-08-21T01:52:47;14.60;99.90
8408;DHT22;4241;48.452;9.216;2022-08-21T01:55:14;15.00;99.90
8408;DHT22;4241;48.452;9.216;2022-08-21T01:57:43;14.60;99.90
8408;DHT22;4241;48.452;9.216;2022-08-21T02:00:13;14.30;99.90
8408;DHT22;4241;48.452;9.216;2022-08-21T02:02:41;14.20;99.90
8408;DHT22;4241;48.452;9.216;2022-08-21T02:05:09;14.20;99.90
8408;DHT22;4241;48.452;9.216;2022-08-21T02:07:38;14.90;99.90
8408;DHT22;4241;48.452;9.216;2022-08-21T02:10:07;14.30;99.90
8408;DHT22;4241;48.452;9.216;2022-08-21T02:12:34;14.20;99.90
8408;DHT22;4241;48.452;9.216;2022-08-21T02:15:03;14.20;99.90
8408;DHT22;4241;48.452;9.216;2022-08-21T02:17:38;14.10;99.90
8408;DHT22;4241;48.452;9.216;2022-08-21T02:20:06;14.00;99.90
8408;DHT22;4241;48.452;9.216;2022-08-21T02:22:33;13.90;99.90
8408;DHT22;4241;48.452;9.216;2022-08-21T02:24:59;14.00;99.90
8408;DHT22;4241;48.452;9.216;2022-08-21T02:27:26;14.10;99.90
8408;DHT22;4241;48.452;9.216;2022-08-21T02:29:55;14.10;99.90
8408;DHT22;4241;48.452;9.216;2022-08-21T02:32:24;14.00;99.90
8408;DHT22;4241;48.452;9.216;2022-08-21T02:34:51;14.10;99.90
8408;DHT22;4241;48.452;9.216;2022-08-21T02:37:18;14.40;99.90
8408;DHT22;4241;48.452;9.216;2022-08-21T02:39:45;14.10;99.90
8408;DHT22;4241;48.452;9.216;2022-08-21T02:42:12;13.90;99.90
8408;DHT22;4241;48.452;9.216;2022-08-21T02:44:38;14.00;99.90
8408;DHT22;4241;48.452;9.216;2022-08-21T02:47:05;14.00;99.90
8408;DHT22;4241;48.452;9.216;2022-08-21T02:49:33;14.00;99.90
8408;DHT22;4241;48.452;9.216;2022-08-21T02:52:00;14.50;99.90
8408;DHT22;4241;48.452;9.216;2022-08-21T02:54:27;13.70;99.90
8408;DHT22;4241;48.452;9.216;2022-08-21T02:56:54;13.80;99.90
8408;DHT22;4241;48.452;9.216;2022-08-21T02:59:21;13.70;99.90
8408;DHT22;4241;48.452;9.216;2022-08-21T03:01:48;13.80;99.90
8408;DHT22;4241;48.452;9.216;2022-08-21T03:04:15;13.90;99.90
8408;DHT22;4241;48.452;9.216;2022-08-21T03:06:43;13.80;99.90
8408;DHT22;4241;48.452;9.216;2022-08-21T03:09:10;13.60;99.90
8408;DHT22;4241;48.452;9.216;2022-08-21T03:11:37;13.70;99.90
8408;DHT22;4241;48.452;9.216;2022-08-21T03:14:04;13.50;99.90
8408;DHT22;4241;48.452;9.216;2022-08-21T03:16:31;13.50;99.90
8408;DHT22;4241;48.452;9.216;2022-08-21T03:18:57;13.70;99.90
8408;DHT22;4241;48.452;9.216;2022-08-21T03:21:25;13.50;99.90
8408;DHT22;4241;48.452;9.216;2022-08-21T03:23:53;13.60;99.90
8408;DHT22;4241;48.452;9.216;2022-08-21T03:26:20;14.00;99.90
8408;DHT22;4241;48.452;9.216;2022-08-21T03:28:47;13.50;99.90
8408;DHT22;4241;48.452;9.216;2022-08-21T03:31:14;13.30;99.90
8408;DHT22;4241;48.452;9.216;2022-08-21T03:33:41;13.70;99.90
8408;DHT22;4241;48.452;9.216;2022-08-21T03:36:11;13.30;99.90
8408;DHT22;4241;48.452;9.216;2022-08-21T03:38:38;13.50;99.90
8408;DHT22;4241;48.452;9.216;2022-08-21T03:41:07;13.40;99.90
8408;DHT22;4241;48.452;9.216;2022-08-21T03:43:35;13.40;99.90
8408;DHT22;4241;48.452;9.216;2022-08-21T03:46:03;13.30;99.90
8408;DHT22;4241;48.452;9.216;2022-08-21T03:48:32;13.30;99.90
8408;DHT22;4241;48.452;9.216;2022-08-21T03:50:59;13.30;99.90
8408;DHT22;4241;48.452;9.216;2022-08-21T03:53:26;13.70;99.90
8408;DHT22;4241;48.452;9.216;2022-08-21T03:55:53;13.20;99.90
8408;DHT22;4241;48.452;9.216;2022-08-21T03:58:25;13.00;99.90
8408;DHT22;4241;48.452;9.216;2022-08-21T04:00:54;13.00;99.90
8408;DHT22;4241;48.452;9.216;2022-08-21T04:03:22;13.10;99.90
8408;DHT22;4241;48.452;9.216;2022-08-21T04:05:49;13.00;99.90
8408;DHT22;4241;48.452;9.216;2022-08-21T04:08:16;13.10;99.90
8408;DHT22;4241;48.452;9.216;2022-08-21T04:10:45;13.00;99.90
8408;DHT22;4241;48.452;9.216;2022-08-21T04:13:12;13.00;99.90
8408;DHT22;4241;48.452;9.216;2022-08-21T04:15:41;13.80;99.90
8408;DHT22;4241;48.452;9.216;2022-08-21T04:18:08;12.90;99.90
8408;DHT22;4241;48.452;9.216;2022-08-21T04:20:35;13.00;99.90
8408;DHT22;4241;48.452;9.216;2022-08-21T04:23:02;13.10;99.90
8408;DHT22;4241;48.452;9.216;2022-08-21T04:25:30;13.10;99.90
8408;DHT22;4241;48.452;9.216;2022-08-21T04:27:57;13.10;99.90
8408;DHT22;4241;48.452;9.216;2022-08-21T04:30:24;13.30;99.90
8408;DHT22;4241;48.452;9.216;2022-08-21T04:32:52;12.80;99.90
8408;DHT22;4241;48.452;9.216;2022-08-21T04:35:21;12.80;99.90
8408;DHT22;4241;48.452;9.216;2022-08-21T04:37:49;13.10;99.90
8408;DHT22;4241;48.452;9.216;2022-08-21T04:40:18;13.10;99.90
8408;DHT22;4241;48.452;9.216;2022-08-21T04:42:46;12.70;99.90
8408;DHT22;4241;48.452;9.216;2022-08-21T04:45:24;13.20;99.90
8408;DHT22;4241;48.452;9.216;2022-08-21T04:47:54;12.80;99.90
8408;DHT22;4241;48.452;9.216;2022-08-21T04:50:22;12.90;99.90
8408;DHT22;4241;48.452;9.216;2022-08-21T04:52:51;12.70;99.90
8408;DHT22;4241;48.452;9.216;2022-08-21T04:55:19;12.70;99.90
8408;DHT22;4241;48.452;9.216;2022-08-21T04:57:47;12.70;99.90
8408;DHT22;4241;48.452;9.216;2022-08-21T05:00:16;12.90;99.90
8408;DHT22;4241;48.452;9.216;2022-08-21T05:02:44;13.10;99.90
8408;DHT22;4241;48.452;9.216;2022-08-21T05:05:14;13.20;99.90
8408;DHT22;4241;48.452;9.216;2022-08-21T05:07:43;13.30;99.90
8408;DHT22;4241;48.452;9.216;2022-08-21T05:10:11;13.30;99.90
8408;DHT22;4241;48.452;9.216;2022-08-21T05:12:40;13.10;99.90
8408;DHT22;4241;48.452;9.216;2022-08-21T05:15:08;13.10;99.90
8408;DHT22;4241;48.452;9.216;2022-08-21T05:17:37;13.00;99.90
8408;DHT22;4241;48.452;9.216;2022-08-21T05:20:04;13.00;99.90
8408;DHT22;4241;48.452;9.216;2022-08-21T05:22:32;13.10;99.90
8408;DHT22;4241;48.452;9.216;2022-08-21T05:24:59;13.20;99.90
8408;DHT22;4241;48.452;9.216;2022-08-21T05:27:26;13.20;99.90
8408;DHT22;4241;48.452;9.216;2022-08-21T05:29:55;13.60;99.90
8408;DHT22;4241;48.452;9.216;2022-08-21T05:32:22;13.30;99.90
8408;DHT22;4241;48.452;9.216;2022-08-21T05:34:49;13.20;99.90
8408;DHT22;4241;48.452;9.216;2022-08-21T05:37:16;13.30;99.90
8408;DHT22;4241;48.452;9.216;2022-08-21T05:39:44;13.40;99.90
8408;DHT22;4241;48.452;9.216;2022-08-21T05:42:11;13.50;99.90
8408;DHT22;4241;48.452;9.216;2022-08-21T05:44:38;13.50;99.90
8408;DHT22;4241;48.452;9.216;2022-08-21T05:47:07;13.50;99.90
8408;DHT22;4241;48.452;9.216;2022-08-21T05:49:34;13.50;99.90
8408;DHT22;4241;48.452;9.216;2022-08-21T05:52:01;13.50;99.90
8408;DHT22;4241;48.452;9.216;2022-08-21T05:54:28;13.50;99.90
8408;DHT22;4241;48.452;9.216;2022-08-21T05:56:56;13.70;99.90
8408;DHT22;4241;48.452;9.216;2022-08-21T05:59:23;13.80;99.90
8408;DHT22;4241;48.452;9.216;2022-08-21T06:01:50;13.80;99.90
8408;DHT22;4241;48.452;9.216;2022-08-21T06:04:18;14.40;99.90
8408;DHT22;4241;48.452;9.216;2022-08-21T06:06:45;14.40;99.90
8408;DHT22;4241;48.452;9.216;2022-08-21T06:09:12;13.90;99.90
8408;DHT22;4241;48.452;9.216;2022-08-21T06:11:39;14.20;99.90
8408;DHT22;4241;48.452;9.216;2022-08-21T06:14:07;14.00;99.90
8408;DHT22;4241;48.452;9.216;2022-08-21T06:16:34;14.00;99.90
8408;DHT22;4241;48.452;9.216;2022-08-21T06:19:01;14.10;99.90
8408;DHT22;4241;48.452;9.216;2022-08-21T06:21:28;14.10;99.90
8408;DHT22;4241;48.452;9.216;2022-08-21T06:23:55;14.20;99.90
8408;DHT22;4241;48.452;9.216;2022-08-21T06:26:22;14.30;99.90
8408;DHT22;4241;48.452;9.216;2022-08-21T06:28:49;14.40;99.90
8408;DHT22;4241;48.452;9.216;2022-08-21T06:31:20;14.80;99.90
8408;DHT22;4241;48.452;9.216;2022-08-21T06:33:47;14.90;99.90
8408;DHT22;4241;48.452;9.216;2022-08-21T06:36:14;15.00;99.90
8408;DHT22;4241;48.452;9.216;2022-08-21T06:38:41;14.90;99.90
8408;DHT22;4241;48.452;9.216;2022-08-21T06:41:09;15.00;99.90
8408;DHT22;4241;48.452;9.216;2022-08-21T06:43:36;15.00;99.90
8408;DHT22;4241;48.452;9.216;2022-08-21T06:46:03;15.40;99.90
8408;DHT22;4241;48.452;9.216;2022-08-21T06:48:31;15.20;99.90
8408;DHT22;4241;48.452;9.216;2022-08-21T06:50:59;15.30;99.90
8408;DHT22;4241;48.452;9.216;2022-08-21T06:53:26;15.50;99.90
8408;DHT22;4241;48.452;9.216;2022-08-21T06:55:53;14.20;99.90
8408;DHT22;4241;48.452;9.216;2022-08-21T06:58:20;15.60;99.90
8408;DHT22;4241;48.452;9.216;2022-08-21T07:00:48;15.70;99.90
8408;DHT22;4241;48.452;9.216;2022-08-21T07:03:19;15.90;99.90
8408;DHT22;4241;48.452;9.216;2022-08-21T07:05:47;16.00;99.90
8408;DHT22;4241;48.452;9.216;2022-08-21T07:08:14;16.10;99.90
8408;DHT22;4241;48.452;9.216;2022-08-21T07:10:42;16.30;99.90
8408;DHT22;4241;48.452;9.216;2022-08-21T07:13:08;16.40;99.90
8408;DHT22;4241;48.452;9.216;2022-08-21T07:15:36;16.50;99.90
8408;DHT22;4241;48.452;9.216;2022-08-21T07:18:03;16.80;99.90
8408;DHT22;4241;48.452;9.216;2022-08-21T07:20:30;16.90;99.90
8408;DHT22;4241;48.452;9.216;2022-08-21T07:23:01;17.00;99.90
8408;DHT22;4241;48.452;9.216;2022-08-21T07:25:28;17.00;99.90
8408;DHT22;4241;48.452;9.216;2022-08-21T07:27:55;17.10;99.90
8408;DHT22;4241;48.452;9.216;2022-08-21T07:30:23;17.30;99.90
8408;DHT22;4241;48.452;9.216;2022-08-21T07:32:50;17.50;99.90
8408;DHT22;4241;48.452;9.216;2022-08-21T07:35:18;17.60;99.90
8408;DHT22;4241;48.452;9.216;2022-08-21T07:37:45;17.70;99.90
8408;DHT22;4241;48.452;9.216;2022-08-21T07:40:15;17.80;99.90
8408;DHT22;4241;48.452;9.216;2022-08-21T07:42:43;18.00;99.90
8408;DHT22;4241;48.452;9.216;2022-08-21T07:45:11;18.10;99.90
8408;DHT22;4241;48.452;9.216;2022-08-21T07:47:38;18.30;99.90
8408;DHT22;4241;48.452;9.216;2022-08-21T07:50:06;18.10;99.90
8408;DHT22;4241;48.452;9.216;2022-08-21T07:52:33;18.50;99.90
8408;DHT22;4241;48.452;9.216;2022-08-21T07:55:00;18.40;99.90
8408;DHT22;4241;48.452;9.216;2022-08-21T07:57:28;18.70;99.90
8408;DHT22;4241;48.452;9.216;2022-08-21T07:59:55;18.90;99.90
8408;DHT22;4241;48.452;9.216;2022-08-21T08:02:23;19.00;99.90
8408;DHT22;4241;48.452;9.216;2022-08-21T08:04:50;19.10;99.90
8408;DHT22;4241;48.452;9.216;2022-08-21T08:07:18;19.40;99.90
8408;DHT22;4241;48.452;9.216;2022-08-21T08:09:45;19.50;99.90
8408;DHT22;4241;48.452;9.216;2022-08-21T08:12:12;19.50;99.90
8408;DHT22;4241;48.452;9.216;2022-08-21T08:14:40;19.70;99.90
8408;DHT22;4241;48.452;9.216;2022-08-21T08:17:08;19.90;99.90
8408;DHT22;4241;48.452;9.216;2022-08-21T08:19:35;20.10;99.90
8408;DHT22;4241;48.452;9.216;2022-08-21T08:22:12;20.20;99.90
8408;DHT22;4241;48.452;9.216;2022-08-21T08:24:39;20.50;99.90
8408;DHT22;4241;48.452;9.216;2022-08-21T08:27:06;22.30;99.90
8408;DHT22;4241;48.452;9.216;2022-08-21T08:29:33;20.90;99.90
8408;DHT22;4241;48.452;9.216;2022-08-21T08:32:02;21.20;99.90
8408;DHT22;4241;48.452;9.216;2022-08-21T08:34:29;21.30;99.90
8408;DHT22;4241;48.452;9.216;2022-08-21T08:36:56;21.60;99.90
8408;DHT22;4241;48.452;9.216;2022-08-21T08:39:24;21.60;99.90
8408;DHT22;4241;48.452;9.216;2022-08-21T08:41:58;21.80;99.90
8408;DHT22;4241;48.452;9.216;2022-08-21T08:44:26;21.90;99.90
8408;DHT22;4241;48.452;9.216;2022-08-21T08:46:53;21.80;99.90
8408;DHT22;4241;48.452;9.216;2022-08-21T08:49:26;22.00;99.90
8408;DHT22;4241;48.452;9.216;2022-08-21T08:52:00;22.30;99.90
8408;DHT22;4241;48.452;9.216;2022-08-21T08:54:31;22.50;99.90
8408;DHT22;4241;48.452;9.216;2022-08-21T08:56:59;22.00;99.90
8408;DHT22;4241;48.452;9.216;2022-08-21T08:59:33;21.90;99.90
8408;DHT22;4241;48.452;9.216;2022-08-21T09:02:03;22.30;99.90
8408;DHT22;4241;48.452;9.216;2022-08-21T09:04:32;22.30;99.90
8408;DHT22;4241;48.452;9.216;2022-08-21T09:07:10;22.60;99.90
8408;DHT22;4241;48.452;9.216;2022-08-21T09:09:52;22.70;99.90
8408;DHT22;4241;48.452;9.216;2022-08-21T09:12:32;22.80;99.90
8408;DHT22;4241;48.452;9.216;2022-08-21T09:15:06;22.90;99.90
8408;DHT22;4241;48.452;9.216;2022-08-21T09:17:46;23.00;99.90
8408;DHT22;4241;48.452;9.216;2022-08-21T09:20:27;23.20;99.90
8408;DHT22;4241;48.452;9.216;2022-08-21T09:23:13;23.50;99.90
8408;DHT22;4241;48.452;9.216;2022-08-21T09:25:49;23.50;99.90
8408;DHT22;4241;48.452;9.216;2022-08-21T09:28:17;23.40;99.90
8408;DHT22;4241;48.452;9.216;2022-08-21T09:30:44;23.60;99.90
8408;DHT22;4241;48.452;9.216;2022-08-21T09:33:13;23.80;99.90
8408;DHT22;4241;48.452;9.216;2022-08-21T09:35:51;24.10;99.90
8408;DHT22;4241;48.452;9.216;2022-08-21T09:38:26;24.10;99.90
8408;DHT22;4241;48.452;9.216;2022-08-21T09:40:57;24.50;99.90
8408;DHT22;4241;48.452;9.216;2022-08-21T09:43:26;24.30;99.90
8408;DHT22;4241;48.452;9.216;2022-08-21T09:46:03;24.00;99.00
8408;DHT22;4241;48.452;9.216;2022-08-21T09:48:39;23.80;99.90
8408;DHT22;4241;48.452;9.216;2022-08-21T09:51:10;24.20;99.90
8408;DHT22;4241;48.452;9.216;2022-08-21T09:53:42;24.30;99.90
8408;DHT22;4241;48.452;9.216;2022-08-21T09:56:22;24.70;99.90
8408;DHT22;4241;48.452;9.216;2022-08-21T09:59:15;25.20;99.90
8408;DHT22;4241;48.452;9.216;2022-08-21T10:01:43;24.60;99.90
8408;DHT22;4241;48.452;9.216;2022-08-21T10:04:11;24.60;99.90
8408;DHT22;4241;48.452;9.216;2022-08-21T10:06:40;24.60;99.90
8408;DHT22;4241;48.452;9.216;2022-08-21T10:09:09;24.90;99.90
8408;DHT22;4241;48.452;9.216;2022-08-21T10:11:37;24.90;99.90
8408;DHT22;4241;48.452;9.216;2022-08-21T10:14:13;25.10;99.90
8408;DHT22;4241;48.452;9.216;2022-08-21T10:16:48;25.10;99.40
8408;DHT22;4241;48.452;9.216;2022-08-21T10:19:23;25.00;99.40
8408;DHT22;4241;48.452;9.216;2022-08-21T10:22:03;24.80;99.90
8408;DHT22;4241;48.452;9.216;2022-08-21T10:24:49;24.90;98.60
8408;DHT22;4241;48.452;9.216;2022-08-21T10:27:25;24.80;99.90
8408;DHT22;4241;48.452;9.216;2022-08-21T10:29:57;25.60;99.80
8408;DHT22;4241;48.452;9.216;2022-08-21T10:32:39;25.00;99.30
8408;DHT22;4241;48.452;9.216;2022-08-21T10:35:12;25.10;96.60
8408;DHT22;4241;48.452;9.216;2022-08-21T10:37:50;25.20;98.60
8408;DHT22;4241;48.452;9.216;2022-08-21T10:40:25;25.30;99.90
8408;DHT22;4241;48.452;9.216;2022-08-21T10:43:04;25.50;95.40
8408;DHT22;4241;48.452;9.216;2022-08-21T10:45:42;25.20;96.60
8408;DHT22;4241;48.452;9.216;2022-08-21T10:48:18;25.30;97.20
8408;DHT22;4241;48.452;9.216;2022-08-21T10:50:50;25.50;97.00
8408;DHT22;4241;48.452;9.216;2022-08-21T10:53:32;25.70;97.70
8408;DHT22;4241;48.452;9.216;2022-08-21T10:56:08;26.10;99.90
8408;DHT22;4241;48.452;9.216;2022-08-21T10:58:40;25.50;97.30
8408;DHT22;4241;48.452;9.216;2022-08-21T11:01:13;25.90;96.90
8408;DHT22;4241;48.452;9.216;2022-08-21T11:03:44;25.60;96.10
8408;DHT22;4241;48.452;9.216;2022-08-21T11:06:16;25.70;95.20
8408;DHT22;4241;48.452;9.216;2022-08-21T11:08:48;25.90;93.70
8408;DHT22;4241;48.452;9.216;2022-08-21T11:11:22;25.60;93.10
8408;DHT22;4241;48.452;9.216;2022-08-21T11:13:55;25.80;92.90
8408;DHT22;4241;48.452;9.216;2022-08-21T11:16:28;25.90;98.00
8408;DHT22;4241;48.452;9.216;2022-08-21T11:19:02;25.70;93.00
8408;DHT22;4241;48.452;9.216;2022-08-21T11:21:36;25.90;93.60
8408;DHT22;4241;48.452;9.216;2022-08-21T11:24:27;26.00;95.80
8408;DHT22;4241;48.452;9.216;2022-08-21T11:26:59;26.10;93.20
8408;DHT22;4241;48.452;9.216;2022-08-21T11:29:29;26.10;95.10
8408;DHT22;4241;48.452;9.216;2022-08-21T11:32:12;26.40;95.20
8408;DHT22;4241;48.452;9.216;2022-08-21T11:34:54;26.60;90.20
8408;DHT22;4241;48.452;9.216;2022-08-21T11:37:37;26.90;94.40
8408;DHT22;4241;48.452;9.216;2022-08-21T11:40:16;27.00;92.40
8408;DHT22;4241;48.452;9.216;2022-08-21T11:42:52;27.00;92.00
8408;DHT22;4241;48.452;9.216;2022-08-21T11:45:25;27.00;91.10
8408;DHT22;4241;48.452;9.216;2022-08-21T11:47:58;26.70;93.60
8408;DHT22;4241;48.452;9.216;2022-08-21T11:50:29;26.80;92.80
8408;DHT22;4241;48.452;9.216;2022-08-21T11:53:00;26.40;94.50
8408;DHT22;4241;48.452;9.216;2022-08-21T11:55:34;26.40;87.90
8408;DHT22;4241;48.452;9.216;2022-08-21T11:58:08;26.50;89.40
8408;DHT22;4241;48.452;9.216;2022-08-21T12:00:45;26.70;87.90
8408;DHT22;4241;48.452;9.216;2022-08-21T12:03:14;26.90;89.00
8408;DHT22;4241;48.452;9.216;2022-08-21T12:05:44;26.40;92.80
8408;DHT22;4241;48.452;9.216;2022-08-21T12:08:28;26.80;89.80
8408;DHT22;4241;48.452;9.216;2022-08-21T12:11:04;26.30;91.80
8408;DHT22;4241;48.452;9.216;2022-08-21T12:13:34;26.80;90.90
8408;DHT22;4241;48.452;9.216;2022-08-21T12:16:10;26.80;83.20
8408;DHT22;4241;48.452;9.216;2022-08-21T12:18:37;27.30;91.60
8408;DHT22;4241;48.452;9.216;2022-08-21T12:21:17;27.30;87.60
8408;DHT22;4241;48.452;9.216;2022-08-21T12:23:48;26.90;89.20
8408;DHT22;4241;48.452;9.216;2022-08-21T12:26:26;26.00;88.60
8408;DHT22;4241;48.452;9.216;2022-08-21T12:29:11;26.30;90.90
8408;DHT22;4241;48.452;9.216;2022-08-21T12:31:56;26.90;91.80
8408;DHT22;4241;48.452;9.216;2022-08-21T12:34:27;27.20;90.50
8408;DHT22;4241;48.452;9.216;2022-08-21T12:36:59;27.20;94.00
8408;DHT22;4241;48.452;9.216;2022-08-21T12:39:29;26.80;85.70
8408;DHT22;4241;48.452;9.216;2022-08-21T12:42:03;26.40;87.60
8408;DHT22;4241;48.452;9.216;2022-08-21T12:44:37;26.60;92.30
8408;DHT22;4241;48.452;9.216;2022-08-21T12:47:14;27.40;91.40
8408;DHT22;4241;48.452;9.216;2022-08-21T12:49:47;27.90;88.30
8408;DHT22;4241;48.452;9.216;2022-08-21T12:52:21;27.30;89.20
8408;DHT22;4241;48.452;9.216;2022-08-21T12:54:48;27.40;89.50
8408;DHT22;4241;48.452;9.216;2022-08-21T12:57:22;27.30;86.60
8408;DHT22;4241;48.452;9.216;2022-08-21T12:59:55;27.40;83.50
8408;DHT22;4241;48.452;9.216;2022-08-21T13:02:25;27.50;90.00
8408;DHT22;4241;48.452;9.216;2022-08-21T13:04:53;27.60;85.30
8408;DHT22;4241;48.452;9.216;2022-08-21T13:07:27;27.60;85.50
8408;DHT22;4241;48.452;9.216;2022-08-21T13:09:59;27.00;85.20
8408;DHT22;4241;48.452;9.216;2022-08-21T13:12:28;27.20;87.60
8408;DHT22;4241;48.452;9.216;2022-08-21T13:14:57;27.50;89.90
8408;DHT22;4241;48.452;9.216;2022-08-21T13:17:25;27.30;88.50
8408;DHT22;4241;48.452;9.216;2022-08-21T13:19:55;26.60;84.60
8408;DHT22;4241;48.452;9.216;2022-08-21T13:22:21;26.80;84.10
8408;DHT22;4241;48.452;9.216;2022-08-21T13:24:48;26.50;88.60
8408;DHT22;4241;48.452;9.216;2022-08-21T13:27:22;26.30;88.60
8408;DHT22;4241;48.452;9.216;2022-08-21T13:30:02;26.60;90.30
8408;DHT22;4241;48.452;9.216;2022-08-21T13:32:30;26.70;86.90
8408;DHT22;4241;48.452;9.216;2022-08-21T13:34:58;26.80;83.20
8408;DHT22;4241;48.452;9.216;2022-08-21T13:37:26;26.70;87.50
8408;DHT22;4241;48.452;9.216;2022-08-21T13:39:54;26.90;91.10
8408;DHT22;4241;48.452;9.216;2022-08-21T13:42:21;26.70;87.90
8408;DHT22;4241;48.452;9.216;2022-08-21T13:44:53;26.70;90.40
8408;DHT22;4241;48.452;9.216;2022-08-21T13:47:20;27.00;85.80
8408;DHT22;4241;48.452;9.216;2022-08-21T13:49:51;26.80;87.40
8408;DHT22;4241;48.452;9.216;2022-08-21T13:52:20;26.50;84.40
8408;DHT22;4241;48.452;9.216;2022-08-21T13:54:53;26.70;86.60
8408;DHT22;4241;48.452;9.216;2022-08-21T13:57:27;26.60;88.60
8408;DHT22;4241;48.452;9.216;2022-08-21T14:02:50;26.40;90.70
8408;DHT22;4241;48.452;9.216;2022-08-21T14:05:22;26.30;91.20
8408;DHT22;4241;48.452;9.216;2022-08-21T14:07:57;25.90;82.90
8408;DHT22;4241;48.452;9.216;2022-08-21T14:10:27;26.10;84.80
8408;DHT22;4241;48.452;9.216;2022-08-21T14:13:01;26.10;84.90
8408;DHT22;4241;48.452;9.216;2022-08-21T14:15:31;26.00;88.60
8408;DHT22;4241;48.452;9.216;2022-08-21T14:18:09;25.90;89.30
8408;DHT22;4241;48.452;9.216;2022-08-21T14:20:40;26.00;85.10
8408;DHT22;4241;48.452;9.216;2022-08-21T14:23:07;26.10;91.40
8408;DHT22;4241;48.452;9.216;2022-08-21T14:25:39;26.10;90.80
8408;DHT22;4241;48.452;9.216;2022-08-21T14:28:14;25.90;87.40
8408;DHT22;4241;48.452;9.216;2022-08-21T14:30:43;25.80;83.30
8408;DHT22;4241;48.452;9.216;2022-08-21T14:33:16;25.50;90.00
8408;DHT22;4241;48.452;9.216;2022-08-21T14:35:44;25.40;87.00
8408;DHT22;4241;48.452;9.216;2022-08-21T14:38:12;25.50;88.90
8408;DHT22;4241;48.452;9.216;2022-08-21T14:40:40;25.70;91.90
8408;DHT22;4241;48.452;9.216;2022-08-21T14:43:07;25.70;87.00
8408;DHT22;4241;48.452;9.216;2022-08-21T14:45:35;25.30;90.40
8408;DHT22;4241;48.452;9.216;2022-08-21T14:48:04;25.60;89.40
8408;DHT22;4241;48.452;9.216;2022-08-21T14:50:32;26.10;86.90
8408;DHT22;4241;48.452;9.216;2022-08-21T14:52:59;26.00;87.80
8408;DHT22;4241;48.452;9.216;2022-08-21T14:55:26;26.20;83.10
8408;DHT22;4241;48.452;9.216;2022-08-21T14:57:56;26.30;87.20
8408;DHT22;4241;48.452;9.216;2022-08-21T15:00:25;26.30;84.90
8408;DHT22;4241;48.452;9.216;2022-08-21T15:02:52;26.00;80.00
8408;DHT22;4241;48.452;9.216;2022-08-21T15:05:19;26.20;91.00
8408;DHT22;4241;48.452;9.216;2022-08-21T15:07:47;26.30;84.80
8408;DHT22;4241;48.452;9.216;2022-08-21T15:10:14;26.10;80.70
8408;DHT22;4241;48.452;9.216;2022-08-21T15:12:41;26.00;75.80
8408;DHT22;4241;48.452;9.216;2022-08-21T15:15:08;25.70;73.90
8408;DHT22;4241;48.452;9.216;2022-08-21T15:17:36;25.70;87.00
8408;DHT22;4241;48.452;9.216;2022-08-21T15:20:04;28.20;80.90
8408;DHT22;4241;48.452;9.216;2022-08-21T15:22:33;26.00;77.50
8408;DHT22;4241;48.452;9.216;2022-08-21T15:25:01;26.20;82.00
8408;DHT22;4241;48.452;9.216;2022-08-21T15:27:28;26.50;82.90
8408;DHT22;4241;48.452;9.216;2022-08-21T15:29:55;26.30;81.00
8408;DHT22;4241;48.452;9.216;2022-08-21T15:32:24;26.40;75.10
8408;DHT22;4241;48.452;9.216;2022-08-21T15:34:53;26.50;83.20
8408;DHT22;4241;48.452;9.216;2022-08-21T15:37:21;26.30;79.50
8408;DHT22;4241;48.452;9.216;2022-08-21T15:39:48;26.10;77.70
8408;DHT22;4241;48.452;9.216;2022-08-21T15:42:17;26.20;81.40
8408;DHT22;4241;48.452;9.216;2022-08-21T15:44:47;26.20;85.90
8408;DHT22;4241;48.452;9.216;2022-08-21T15:47:17;23.90;82.10
8408;DHT22;4241;48.452;9.216;2022-08-21T15:49:44;25.50;80.00
8408;DHT22;4241;48.452;9.216;2022-08-21T15:52:11;25.80;82.00
8408;DHT22;4241;48.452;9.216;2022-08-21T15:54:38;26.10;85.70
8408;DHT22;4241;48.452;9.216;2022-08-21T15:57:05;26.70;87.10
8408;DHT22;4241;48.452;9.216;2022-08-21T15:59:40;27.40;79.90
8408;DHT22;4241;48.452;9.216;2022-08-21T16:02:12;28.30;78.50
8408;DHT22;4241;48.452;9.216;2022-08-21T16:04:40;28.90;72.20
8408;DHT22;4241;48.452;9.216;2022-08-21T16:07:07;29.20;69.40
8408;DHT22;4241;48.452;9.216;2022-08-21T16:09:33;29.80;66.00
8408;DHT22;4241;48.452;9.216;2022-08-21T16:12:01;30.00;61.70
8408;DHT22;4241;48.452;9.216;2022-08-21T16:14:28;30.50;65.10
8408;DHT22;4241;48.452;9.216;2022-08-21T16:16:57;30.60;64.80
8408;DHT22;4241;48.452;9.216;2022-08-21T16:19:25;31.00;62.00
8408;DHT22;4241;48.452;9.216;2022-08-21T16:21:53;31.10;57.80